sensor_id;sensor_type;location;lat;lon;timestamp;temperature;humidity
15452;DHT22;7827;53.594;9.938;2024-03-02T00:01:07;10.20;8.80
15452;DHT22;7827;53.594;9.938;2024-03-02T00:03:36;10.40;1.00
15452;DHT22;7827;53.594;9.938;2024-03-02T00:06:06;10.40;99.90
15452;DHT22;7827;53.594;9.938;2024-03-02T00:08:35;10.50;75.40
15452;DHT22;7827;53.594;9.938;2024-03-02T00:11:03;10.50;1.00
15452;DHT22;7827;53.594;9.938;2024-03-02T00:13:32;10.40;1.00
15452;DHT22;7827;53.594;9.938;2024-03-02T00:16:01;10.40;1.00
15452;DHT22;7827;53.594;9.938;2024-03-02T00:18:32;10.30;96.10
15452;DHT22;7827;53.594;9.938;2024-03-02T00:21:01;10.30;1.00
15452;DHT22;7827;53.594;9.938;2024-03-02T00:23:33;10.40;1.00
15452;DHT22;7827;53.594;9.938;2024-03-02T00:26:02;10.40;1.00
15452;DHT22;7827;53.594;9.938;2024-03-02T00:28:32;10.30;1.00
15452;DHT22;7827;53.594;9.938;2024-03-02T00:31:04;10.40;1.00
15452;DHT22;7827;53.594;9.938;2024-03-02T00:33:33;10.50;99.90
15452;DHT22;7827;53.594;9.938;2024-03-02T00:36:03;10.40;1.00
15452;DHT22;7827;53.594;9.938;2024-03-02T00:38:33;10.40;1.00
15452;DHT22;7827;53.594;9.938;2024-03-02T00:41:05;10.30;1.00
15452;DHT22;7827;53.594;9.938;2024-03-02T00:43:44;10.30;1.00
15452;DHT22;7827;53.594;9.938;2024-03-02T00:46:19;10.30;1.00
15452;DHT22;7827;53.594;9.938;2024-03-02T00:48:57;10.20;1.00
15452;DHT22;7827;53.594;9.938;2024-03-02T00:51:27;10.20;1.00
15452;DHT22;7827;53.594;9.938;2024-03-02T00:53:58;10.20;1.00
15452;DHT22;7827;53.594;9.938;2024-03-02T00:56:27;10.20;99.90
15452;DHT22;7827;53.594;9.938;2024-03-02T00:58:56;10.20;60.30
15452;DHT22;7827;53.594;9.938;2024-03-02T01:01:24;10.20;97.60
15452;DHT22;7827;53.594;9.938;2024-03-02T01:03:53;10.20;1.00
15452;DHT22;7827;53.594;9.938;2024-03-02T01:06:21;10.20;1.00
15452;DHT22;7827;53.594;9.938;2024-03-02T01:08:50;10.20;1.00
15452;DHT22;7827;53.594;9.938;2024-03-02T01:11:21;10.20;1.00
15452;DHT22;7827;53.594;9.938;2024-03-02T01:13:51;10.20;99.90
15452;DHT22;7827;53.594;9.938;2024-03-02T01:16:20;10.10;99.90
15452;DHT22;7827;53.594;9.938;2024-03-02T01:18:48;10.00;99.90
15452;DHT22;7827;53.594;9.938;2024-03-02T01:21:17;10.00;99.90
15452;DHT22;7827;53.594;9.938;2024-03-02T01:23:45;10.00;1.00
15452;DHT22;7827;53.594;9.938;2024-03-02T01:26:13;10.00;1.00
15452;DHT22;7827;53.594;9.938;2024-03-02T01:28:43;10.00;99.90
15452;DHT22;7827;53.594;9.938;2024-03-02T01:31:11;9.90;99.90
15452;DHT22;7827;53.594;9.938;2024-03-02T01:33:39;9.90;99.90
15452;DHT22;7827;53.594;9.938;2024-03-02T01:36:08;9.90;99.90
15452;DHT22;7827;53.594;9.938;2024-03-02T01:38:36;9.90;1.00
15452;DHT22;7827;53.594;9.938;2024-03-02T01:41:04;10.00;99.90
15452;DHT22;7827;53.594;9.938;2024-03-02T01:43:32;10.00;1.00
15452;DHT22;7827;53.594;9.938;2024-03-02T01:46:03;9.90;1.00
15452;DHT22;7827;53.594;9.938;2024-03-02T01:48:32;9.80;99.90
15452;DHT22;7827;53.594;9.938;2024-03-02T01:51:01;9.80;99.90
15452;DHT22;7827;53.594;9.938;2024-03-02T01:53:29;9.80;99.90
15452;DHT22;7827;53.594;9.938;2024-03-02T01:55:57;9.80;99.90
15452;DHT22;7827;53.594;9.938;2024-03-02T01:58:25;9.70;1.00
15452;DHT22;7827;53.594;9.938;2024-03-02T02:00:53;9.70;1.00
15452;DHT22;7827;53.594;9.938;2024-03-02T02:03:23;9.70;1.00
15452;DHT22;7827;53.594;9.938;2024-03-02T02:05:51;9.60;1.00
15452;DHT22;7827;53.594;9.938;2024-03-02T02:08:19;9.60;99.10
15452;DHT22;7827;53.594;9.938;2024-03-02T02:10:48;9.60;99.90
15452;DHT22;7827;53.594;9.938;2024-03-02T02:13:16;9.50;99.90
15452;DHT22;7827;53.594;9.938;2024-03-02T02:15:44;9.50;99.90
15452;DHT22;7827;53.594;9.938;2024-03-02T02:18:12;9.50;99.90
15452;DHT22;7827;53.594;9.938;2024-03-02T02:20:42;9.40;99.90
15452;DHT22;7827;53.594;9.938;2024-03-02T02:23:10;9.40;99.90
15452;DHT22;7827;53.594;9.938;2024-03-02T02:25:40;9.40;1.00
15452;DHT22;7827;53.594;9.938;2024-03-02T02:28:08;9.40;1.00
15452;DHT22;7827;53.594;9.938;2024-03-02T02:30:36;9.40;1.00
15452;DHT22;7827;53.594;9.938;2024-03-02T02:33:05;9.30;1.00
15452;DHT22;7827;53.594;9.938;2024-03-02T02:35:33;9.40;1.00
15452;DHT22;7827;53.594;9.938;2024-03-02T02:38:01;9.40;1.00
15452;DHT22;7827;53.594;9.938;2024-03-02T02:40:31;9.30;1.00
15452;DHT22;7827;53.594;9.938;2024-03-02T02:42:59;9.30;1.00
15452;DHT22;7827;53.594;9.938;2024-03-02T02:45:28;9.30;1.00
15452;DHT22;7827;53.594;9.938;2024-03-02T02:47:56;9.20;1.00
15452;DHT22;7827;53.594;9.938;2024-03-02T02:50:24;9.30;1.00
15452;DHT22;7827;53.594;9.938;2024-03-02T02:52:52;9.30;1.00
15452;DHT22;7827;53.594;9.938;2024-03-02T02:55:21;9.30;1.00
15452;DHT22;7827;53.594;9.938;2024-03-02T02:57:50;9.30;1.00
15452;DHT22;7827;53.594;9.938;2024-03-02T03:00:19;9.30;1.00
15452;DHT22;7827;53.594;9.938;2024-03-02T03:02:49;9.20;1.00
15452;DHT22;7827;53.594;9.938;2024-03-02T03:05:18;9.20;1.00
15452;DHT22;7827;53.594;9.938;2024-03-02T03:07:46;9.30;1.00
15452;DHT22;7827;53.594;9.938;2024-03-02T03:10:17;9.30;1.00
15452;DHT22;7827;53.594;9.938;2024-03-02T03:12:47;9.30;1.00
15452;DHT22;7827;53.594;9.938;2024-03-02T03:15:17;9.20;1.00
15452;DHT22;7827;53.594;9.938;2024-03-02T03:17:45;9.20;1.00
15452;DHT22;7827;53.594;9.938;2024-03-02T03:20:14;9.20;1.00
15452;DHT22;7827;53.594;9.938;2024-03-02T03:22:43;9.20;1.00
15452;DHT22;7827;53.594;9.938;2024-03-02T03:25:11;9.30;1.00
15452;DHT22;7827;53.594;9.938;2024-03-02T03:27:39;9.20;99.90
15452;DHT22;7827;53.594;9.938;2024-03-02T03:30:09;9.10;1.00
15452;DHT22;7827;53.594;9.938;2024-03-02T03:32:39;9.10;1.00
15452;DHT22;7827;53.594;9.938;2024-03-02T03:35:08;9.10;1.00
15452;DHT22;7827;53.594;9.938;2024-03-02T03:37:37;9.10;1.00
15452;DHT22;7827;53.594;9.938;2024-03-02T03:40:06;9.10;1.00
15452;DHT22;7827;53.594;9.938;2024-03-02T03:42:37;9.00;1.00
15452;DHT22;7827;53.594;9.938;2024-03-02T03:45:07;9.00;1.00
15452;DHT22;7827;53.594;9.938;2024-03-02T03:47:35;9.00;1.00
15452;DHT22;7827;53.594;9.938;2024-03-02T03:50:06;9.10;1.00
15452;DHT22;7827;53.594;9.938;2024-03-02T03:52:35;9.10;1.00
15452;DHT22;7827;53.594;9.938;2024-03-02T03:55:03;9.00;1.00
15452;DHT22;7827;53.594;9.938;2024-03-02T03:57:32;9.00;1.00
15452;DHT22;7827;53.594;9.938;2024-03-02T04:00:01;9.00;1.00
15452;DHT22;7827;53.594;9.938;2024-03-02T04:02:38;9.10;1.00
15452;DHT22;7827;53.594;9.938;2024-03-02T04:05:08;9.10;1.00
15452;DHT22;7827;53.594;9.938;2024-03-02T04:07:38;9.10;1.00
15452;DHT22;7827;53.594;9.938;2024-03-02T04:10:08;9.00;99.90
15452;DHT22;7827;53.594;9.938;2024-03-02T04:12:37;9.10;1.00
15452;DHT22;7827;53.594;9.938;2024-03-02T04:15:07;9.00;99.90
15452;DHT22;7827;53.594;9.938;2024-03-02T04:17:35;9.00;99.90
15452;DHT22;7827;53.594;9.938;2024-03-02T04:20:04;9.00;99.90
15452;DHT22;7827;53.594;9.938;2024-03-02T04:22:34;9.00;99.90
15452;DHT22;7827;53.594;9.938;2024-03-02T04:25:03;9.10;99.90
15452;DHT22;7827;53.594;9.938;2024-03-02T04:27:34;9.00;99.90
15452;DHT22;7827;53.594;9.938;2024-03-02T04:30:03;9.10;99.90
15452;DHT22;7827;53.594;9.938;2024-03-02T04:32:32;9.00;1.00
15452;DHT22;7827;53.594;9.938;2024-03-02T04:35:01;9.00;1.00
15452;DHT22;7827;53.594;9.938;2024-03-02T04:37:29;9.10;99.90
15452;DHT22;7827;53.594;9.938;2024-03-02T04:39:59;9.10;1.00
15452;DHT22;7827;53.594;9.938;2024-03-02T04:42:27;9.10;1.00
15452;DHT22;7827;53.594;9.938;2024-03-02T04:44:55;9.00;1.00
15452;DHT22;7827;53.594;9.938;2024-03-02T04:47:23;9.00;1.00
15452;DHT22;7827;53.594;9.938;2024-03-02T04:49:52;9.10;1.00
15452;DHT22;7827;53.594;9.938;2024-03-02T04:52:20;9.10;1.00
15452;DHT22;7827;53.594;9.938;2024-03-02T04:54:48;9.10;1.00
15452;DHT22;7827;53.594;9.938;2024-03-02T04:57:35;9.10;1.00
15452;DHT22;7827;53.594;9.938;2024-03-02T05:00:04;9.10;1.00
15452;DHT22;7827;53.594;9.938;2024-03-02T05:02:34;9.10;1.00
15452;DHT22;7827;53.594;9.938;2024-03-02T05:05:03;9.20;1.00
15452;DHT22;7827;53.594;9.938;2024-03-02T05:07:31;9.10;99.90
15452;DHT22;7827;53.594;9.938;2024-03-02T05:09:59;9.20;1.00
15452;DHT22;7827;53.594;9.938;2024-03-02T05:12:28;9.20;99.90
15452;DHT22;7827;53.594;9.938;2024-03-02T05:15:18;9.10;1.00
15452;DHT22;7827;53.594;9.938;2024-03-02T05:17:46;9.10;1.00
15452;DHT22;7827;53.594;9.938;2024-03-02T05:20:14;9.00;1.00
15452;DHT22;7827;53.594;9.938;2024-03-02T05:22:43;8.90;1.00
15452;DHT22;7827;53.594;9.938;2024-03-02T05:25:11;9.00;1.00
15452;DHT22;7827;53.594;9.938;2024-03-02T05:27:40;9.10;99.90
15452;DHT22;7827;53.594;9.938;2024-03-02T05:30:09;9.10;99.90
15452;DHT22;7827;53.594;9.938;2024-03-02T05:32:39;9.10;1.00
15452;DHT22;7827;53.594;9.938;2024-03-02T05:35:07;9.10;99.90
15452;DHT22;7827;53.594;9.938;2024-03-02T05:37:38;9.10;99.90
15452;DHT22;7827;53.594;9.938;2024-03-02T05:40:07;9.10;99.90
15452;DHT22;7827;53.594;9.938;2024-03-02T05:42:35;9.10;99.90
15452;DHT22;7827;53.594;9.938;2024-03-02T05:45:05;9.00;1.00
15452;DHT22;7827;53.594;9.938;2024-03-02T05:47:33;9.00;1.00
15452;DHT22;7827;53.594;9.938;2024-03-02T05:50:03;8.90;1.00
15452;DHT22;7827;53.594;9.938;2024-03-02T05:52:31;9.10;99.90
15452;DHT22;7827;53.594;9.938;2024-03-02T05:54:59;9.10;99.90
15452;DHT22;7827;53.594;9.938;2024-03-02T05:57:28;9.10;99.90
15452;DHT22;7827;53.594;9.938;2024-03-02T06:00:12;9.10;62.60
15452;DHT22;7827;53.594;9.938;2024-03-02T06:02:44;9.00;99.90
15452;DHT22;7827;53.594;9.938;2024-03-02T06:05:13;9.10;99.90
15452;DHT22;7827;53.594;9.938;2024-03-02T06:07:43;9.20;36.80
15452;DHT22;7827;53.594;9.938;2024-03-02T06:10:11;9.00;1.00
15452;DHT22;7827;53.594;9.938;2024-03-02T06:12:40;8.90;99.90
15452;DHT22;7827;53.594;9.938;2024-03-02T06:15:09;8.80;99.90
15452;DHT22;7827;53.594;9.938;2024-03-02T06:17:37;8.80;1.00
15452;DHT22;7827;53.594;9.938;2024-03-02T06:20:06;8.80;1.00
15452;DHT22;7827;53.594;9.938;2024-03-02T06:22:37;8.80;1.00
15452;DHT22;7827;53.594;9.938;2024-03-02T06:25:06;8.70;1.00
15452;DHT22;7827;53.594;9.938;2024-03-02T06:27:34;8.70;1.00
15452;DHT22;7827;53.594;9.938;2024-03-02T06:30:03;8.70;1.00
15452;DHT22;7827;53.594;9.938;2024-03-02T06:32:31;8.80;1.00
15452;DHT22;7827;53.594;9.938;2024-03-02T06:35:00;8.80;99.90
15452;DHT22;7827;53.594;9.938;2024-03-02T06:37:28;8.80;1.00
15452;DHT22;7827;53.594;9.938;2024-03-02T06:39:57;8.80;99.90
15452;DHT22;7827;53.594;9.938;2024-03-02T06:42:26;8.80;99.90
15452;DHT22;7827;53.594;9.938;2024-03-02T06:44:54;8.80;99.90
15452;DHT22;7827;53.594;9.938;2024-03-02T06:47:22;8.90;99.90
15452;DHT22;7827;53.594;9.938;2024-03-02T06:49:51;8.80;99.90
15452;DHT22;7827;53.594;9.938;2024-03-02T06:52:20;8.80;99.90
15452;DHT22;7827;53.594;9.938;2024-03-02T06:54:51;8.70;99.90
15452;DHT22;7827;53.594;9.938;2024-03-02T06:57:20;8.70;1.00
15452;DHT22;7827;53.594;9.938;2024-03-02T06:59:48;8.70;1.00
15452;DHT22;7827;53.594;9.938;2024-03-02T07:02:21;8.70;1.00
15452;DHT22;7827;53.594;9.938;2024-03-02T07:04:49;8.70;99.90
15452;DHT22;7827;53.594;9.938;2024-03-02T07:07:18;8.80;99.90
15452;DHT22;7827;53.594;9.938;2024-03-02T07:09:46;8.80;99.90
15452;DHT22;7827;53.594;9.938;2024-03-02T07:12:15;8.80;1.00
15452;DHT22;7827;53.594;9.938;2024-03-02T07:14:44;8.90;1.00
15452;DHT22;7827;53.594;9.938;2024-03-02T07:17:38;8.80;99.90
15452;DHT22;7827;53.594;9.938;2024-03-02T07:20:06;8.80;99.90
15452;DHT22;7827;53.594;9.938;2024-03-02T07:22:34;8.80;99.90
15452;DHT22;7827;53.594;9.938;2024-03-02T07:25:06;8.90;99.90
15452;DHT22;7827;53.594;9.938;2024-03-02T07:27:55;9.00;99.90
15452;DHT22;7827;53.594;9.938;2024-03-02T07:30:25;8.90;99.90
15452;DHT22;7827;53.594;9.938;2024-03-02T07:32:53;9.10;99.90
15452;DHT22;7827;53.594;9.938;2024-03-02T07:35:21;9.10;27.30
15452;DHT22;7827;53.594;9.938;2024-03-02T07:37:53;9.20;1.00
15452;DHT22;7827;53.594;9.938;2024-03-02T07:40:22;9.10;1.00
15452;DHT22;7827;53.594;9.938;2024-03-02T07:42:50;9.20;1.00
15452;DHT22;7827;53.594;9.938;2024-03-02T07:45:19;9.30;1.00
15452;DHT22;7827;53.594;9.938;2024-03-02T07:47:48;9.20;1.00
15452;DHT22;7827;53.594;9.938;2024-03-02T07:50:17;9.30;1.00
15452;DHT22;7827;53.594;9.938;2024-03-02T07:52:45;9.20;99.90
15452;DHT22;7827;53.594;9.938;2024-03-02T07:55:13;9.30;1.00
15452;DHT22;7827;53.594;9.938;2024-03-02T07:57:41;9.30;1.00
15452;DHT22;7827;53.594;9.938;2024-03-02T08:00:10;9.40;1.00
15452;DHT22;7827;53.594;9.938;2024-03-02T08:02:40;9.40;1.00
15452;DHT22;7827;53.594;9.938;2024-03-02T08:05:10;9.40;99.90
15452;DHT22;7827;53.594;9.938;2024-03-02T08:07:38;9.40;99.90
15452;DHT22;7827;53.594;9.938;2024-03-02T08:10:08;9.50;99.90
15452;DHT22;7827;53.594;9.938;2024-03-02T08:12:36;9.40;1.00
15452;DHT22;7827;53.594;9.938;2024-03-02T08:15:06;9.30;1.00
15452;DHT22;7827;53.594;9.938;2024-03-02T08:17:34;9.40;99.90
15452;DHT22;7827;53.594;9.938;2024-03-02T08:20:06;9.50;1.00
15452;DHT22;7827;53.594;9.938;2024-03-02T08:22:36;9.50;99.90
15452;DHT22;7827;53.594;9.938;2024-03-02T08:25:05;9.60;99.90
15452;DHT22;7827;53.594;9.938;2024-03-02T08:27:33;9.60;1.00
15452;DHT22;7827;53.594;9.938;2024-03-02T08:30:01;9.60;98.20
15452;DHT22;7827;53.594;9.938;2024-03-02T08:32:33;9.50;99.90
15452;DHT22;7827;53.594;9.938;2024-03-02T08:35:01;9.60;1.00
15452;DHT22;7827;53.594;9.938;2024-03-02T08:37:30;9.60;99.90
15452;DHT22;7827;53.594;9.938;2024-03-02T08:39:59;9.50;1.00
15452;DHT22;7827;53.594;9.938;2024-03-02T08:42:28;9.50;99.90
15452;DHT22;7827;53.594;9.938;2024-03-02T08:44:56;9.50;99.90
15452;DHT22;7827;53.594;9.938;2024-03-02T08:47:24;9.50;1.00
15452;DHT22;7827;53.594;9.938;2024-03-02T08:49:52;9.50;99.90
15452;DHT22;7827;53.594;9.938;2024-03-02T08:52:22;9.60;73.40
15452;DHT22;7827;53.594;9.938;2024-03-02T08:54:50;9.70;1.00
15452;DHT22;7827;53.594;9.938;2024-03-02T08:57:19;9.80;1.00
15452;DHT22;7827;53.594;9.938;2024-03-02T08:59:48;9.90;99.90
15452;DHT22;7827;53.594;9.938;2024-03-02T09:02:16;10.00;99.90
15452;DHT22;7827;53.594;9.938;2024-03-02T09:04:44;10.10;1.00
15452;DHT22;7827;53.594;9.938;2024-03-02T09:07:12;10.10;1.00
15452;DHT22;7827;53.594;9.938;2024-03-02T09:09:40;10.10;76.40
15452;DHT22;7827;53.594;9.938;2024-03-02T09:12:09;10.20;27.80
15452;DHT22;7827;53.594;9.938;2024-03-02T09:14:40;10.40;1.00
15452;DHT22;7827;53.594;9.938;2024-03-02T09:17:08;10.50;99.90
15452;DHT22;7827;53.594;9.938;2024-03-02T09:19:38;10.60;1.00
15452;DHT22;7827;53.594;9.938;2024-03-02T09:22:07;10.70;1.00
15452;DHT22;7827;53.594;9.938;2024-03-02T09:24:35;10.60;1.00
15452;DHT22;7827;53.594;9.938;2024-03-02T09:27:03;10.70;1.00
15452;DHT22;7827;53.594;9.938;2024-03-02T09:29:32;10.70;1.00
15452;DHT22;7827;53.594;9.938;2024-03-02T09:32:02;10.80;1.00
15452;DHT22;7827;53.594;9.938;2024-03-02T09:34:30;10.80;1.00
15452;DHT22;7827;53.594;9.938;2024-03-02T09:36:58;10.80;1.00
15452;DHT22;7827;53.594;9.938;2024-03-02T09:39:26;10.80;1.00
15452;DHT22;7827;53.594;9.938;2024-03-02T09:41:55;10.80;1.00
15452;DHT22;7827;53.594;9.938;2024-03-02T09:44:23;10.90;1.00
15452;DHT22;7827;53.594;9.938;2024-03-02T09:46:52;11.00;1.00
15452;DHT22;7827;53.594;9.938;2024-03-02T09:49:22;11.10;99.90
15452;DHT22;7827;53.594;9.938;2024-03-02T09:51:50;11.20;1.00
15452;DHT22;7827;53.594;9.938;2024-03-02T09:54:18;11.40;1.00
15452;DHT22;7827;53.594;9.938;2024-03-02T09:56:49;11.30;99.90
15452;DHT22;7827;53.594;9.938;2024-03-02T09:59:18;11.30;1.00
15452;DHT22;7827;53.594;9.938;2024-03-02T10:01:57;11.30;1.00
15452;DHT22;7827;53.594;9.938;2024-03-02T10:04:28;11.40;1.00
15452;DHT22;7827;53.594;9.938;2024-03-02T10:07:11;11.50;25.30
15452;DHT22;7827;53.594;9.938;2024-03-02T10:09:40;11.60;1.00
15452;DHT22;7827;53.594;9.938;2024-03-02T10:12:10;11.70;1.00
15452;DHT22;7827;53.594;9.938;2024-03-02T10:14:40;11.80;1.00
15452;DHT22;7827;53.594;9.938;2024-03-02T10:17:11;12.00;99.90
15452;DHT22;7827;53.594;9.938;2024-03-02T10:19:40;12.00;1.00
15452;DHT22;7827;53.594;9.938;2024-03-02T10:22:10;12.00;1.00
15452;DHT22;7827;53.594;9.938;2024-03-02T10:24:39;12.20;57.80
15452;DHT22;7827;53.594;9.938;2024-03-02T10:27:09;12.40;99.90
15452;DHT22;7827;53.594;9.938;2024-03-02T10:29:38;12.40;1.00
15452;DHT22;7827;53.594;9.938;2024-03-02T10:32:09;12.50;99.90
15452;DHT22;7827;53.594;9.938;2024-03-02T10:34:41;12.40;1.00
15452;DHT22;7827;53.594;9.938;2024-03-02T10:37:10;12.40;1.00
15452;DHT22;7827;53.594;9.938;2024-03-02T10:39:40;12.50;83.70
15452;DHT22;7827;53.594;9.938;2024-03-02T10:42:08;12.50;99.90
15452;DHT22;7827;53.594;9.938;2024-03-02T10:44:37;12.60;99.90
15452;DHT22;7827;53.594;9.938;2024-03-02T10:47:05;12.60;99.90
15452;DHT22;7827;53.594;9.938;2024-03-02T10:49:34;12.60;99.90
15452;DHT22;7827;53.594;9.938;2024-03-02T10:52:03;12.60;99.90
15452;DHT22;7827;53.594;9.938;2024-03-02T10:54:32;12.50;99.90
15452;DHT22;7827;53.594;9.938;2024-03-02T10:57:04;12.50;1.00
15452;DHT22;7827;53.594;9.938;2024-03-02T10:59:37;12.40;1.00
15452;DHT22;7827;53.594;9.938;2024-03-02T11:02:07;12.40;1.00
15452;DHT22;7827;53.594;9.938;2024-03-02T11:04:39;12.50;17.70
15452;DHT22;7827;53.594;9.938;2024-03-02T11:07:10;12.60;1.00
15452;DHT22;7827;53.594;9.938;2024-03-02T11:09:41;12.70;1.00
15452;DHT22;7827;53.594;9.938;2024-03-02T11:12:13;12.70;1.00
15452;DHT22;7827;53.594;9.938;2024-03-02T11:14:45;12.70;1.00
15452;DHT22;7827;53.594;9.938;2024-03-02T11:17:14;12.70;1.00
15452;DHT22;7827;53.594;9.938;2024-03-02T11:19:44;12.80;1.00
15452;DHT22;7827;53.594;9.938;2024-03-02T11:22:15;12.90;1.00
15452;DHT22;7827;53.594;9.938;2024-03-02T11:24:48;13.00;1.00
15452;DHT22;7827;53.594;9.938;2024-03-02T11:27:59;13.10;99.90
15452;DHT22;7827;53.594;9.938;2024-03-02T11:30:50;13.20;1.00
15452;DHT22;7827;53.594;9.938;2024-03-02T11:33:26;13.10;1.00
15452;DHT22;7827;53.594;9.938;2024-03-02T11:35:57;13.10;1.00
15452;DHT22;7827;53.594;9.938;2024-03-02T11:38:32;13.10;1.00
15452;DHT22;7827;53.594;9.938;2024-03-02T11:41:02;13.10;1.00
15452;DHT22;7827;53.594;9.938;2024-03-02T11:43:30;13.10;1.00
15452;DHT22;7827;53.594;9.938;2024-03-02T11:46:01;13.10;1.00
15452;DHT22;7827;53.594;9.938;2024-03-02T11:48:35;13.10;1.00
15452;DHT22;7827;53.594;9.938;2024-03-02T11:51:04;13.10;1.00
15452;DHT22;7827;53.594;9.938;2024-03-02T11:53:35;13.10;1.00
15452;DHT22;7827;53.594;9.938;2024-03-02T11:56:06;13.20;1.00
15452;DHT22;7827;53.594;9.938;2024-03-02T11:58:36;13.20;1.00
15452;DHT22;7827;53.594;9.938;2024-03-02T12:01:05;13.20;1.00
15452;DHT22;7827;53.594;9.938;2024-03-02T12:03:34;13.20;1.00
15452;DHT22;7827;53.594;9.938;2024-03-02T12:06:03;13.20;1.00
15452;DHT22;7827;53.594;9.938;2024-03-02T12:08:34;13.20;1.00
15452;DHT22;7827;53.594;9.938;2024-03-02T12:11:03;13.20;1.00
15452;DHT22;7827;53.594;9.938;2024-03-02T12:13:33;13.20;1.00
15452;DHT22;7827;53.594;9.938;2024-03-02T12:16:01;13.20;1.00
15452;DHT22;7827;53.594;9.938;2024-03-02T12:18:30;13.20;1.00
15452;DHT22;7827;53.594;9.938;2024-03-02T12:20:58;13.20;1.00
15452;DHT22;7827;53.594;9.938;2024-03-02T12:23:26;13.20;1.00
15452;DHT22;7827;53.594;9.938;2024-03-02T12:25:56;13.20;1.00
15452;DHT22;7827;53.594;9.938;2024-03-02T12:28:24;13.20;1.00
15452;DHT22;7827;53.594;9.938;2024-03-02T12:30:53;13.20;1.00
15452;DHT22;7827;53.594;9.938;2024-03-02T12:33:21;13.20;1.00
15452;DHT22;7827;53.594;9.938;2024-03-02T12:35:49;13.20;1.00
15452;DHT22;7827;53.594;9.938;2024-03-02T12:38:17;13.30;1.00
15452;DHT22;7827;53.594;9.938;2024-03-02T12:40:48;13.30;1.00
15452;DHT22;7827;53.594;9.938;2024-03-02T12:43:18;13.30;1.00
15452;DHT22;7827;53.594;9.938;2024-03-02T12:45:46;13.30;1.00
15452;DHT22;7827;53.594;9.938;2024-03-02T12:48:15;13.30;1.00
15452;DHT22;7827;53.594;9.938;2024-03-02T12:50:43;13.30;1.00
15452;DHT22;7827;53.594;9.938;2024-03-02T12:53:14;13.20;1.00
15452;DHT22;7827;53.594;9.938;2024-03-02T12:55:44;13.30;1.00
15452;DHT22;7827;53.594;9.938;2024-03-02T12:58:19;13.30;1.00
15452;DHT22;7827;53.594;9.938;2024-03-02T13:00:48;13.30;1.00
15452;DHT22;7827;53.594;9.938;2024-03-02T13:03:18;13.30;99.90
15452;DHT22;7827;53.594;9.938;2024-03-02T13:05:51;13.30;99.90
15452;DHT22;7827;53.594;9.938;2024-03-02T13:08:20;13.30;1.00
15452;DHT22;7827;53.594;9.938;2024-03-02T13:10:48;13.20;1.00
15452;DHT22;7827;53.594;9.938;2024-03-02T13:13:18;13.30;99.90
15452;DHT22;7827;53.594;9.938;2024-03-02T13:15:46;13.30;1.00
15452;DHT22;7827;53.594;9.938;2024-03-02T13:18:15;13.30;1.00
15452;DHT22;7827;53.594;9.938;2024-03-02T13:20:46;13.40;1.00
15452;DHT22;7827;53.594;9.938;2024-03-02T13:23:14;13.40;1.00
15452;DHT22;7827;53.594;9.938;2024-03-02T13:25:42;13.50;99.90
15452;DHT22;7827;53.594;9.938;2024-03-02T13:28:11;13.40;99.90
15452;DHT22;7827;53.594;9.938;2024-03-02T13:30:40;13.50;1.00
15452;DHT22;7827;53.594;9.938;2024-03-02T13:33:09;13.50;99.90
15452;DHT22;7827;53.594;9.938;2024-03-02T13:35:37;13.60;1.00
15452;DHT22;7827;53.594;9.938;2024-03-02T13:38:05;13.60;99.90
15452;DHT22;7827;53.594;9.938;2024-03-02T13:40:33;13.60;99.90
15452;DHT22;7827;53.594;9.938;2024-03-02T13:43:02;13.70;99.90
15452;DHT22;7827;53.594;9.938;2024-03-02T13:45:30;13.80;99.90
15452;DHT22;7827;53.594;9.938;2024-03-02T13:48:01;13.80;99.90
15452;DHT22;7827;53.594;9.938;2024-03-02T13:50:30;13.80;99.90
15452;DHT22;7827;53.594;9.938;2024-03-02T13:52:58;13.90;1.00
15452;DHT22;7827;53.594;9.938;2024-03-02T13:55:27;13.90;1.00
15452;DHT22;7827;53.594;9.938;2024-03-02T13:57:55;13.90;99.90
15452;DHT22;7827;53.594;9.938;2024-03-02T14:00:23;14.00;99.90
15452;DHT22;7827;53.594;9.938;2024-03-02T14:02:52;14.00;99.90
15452;DHT22;7827;53.594;9.938;2024-03-02T14:05:22;13.90;99.90
15452;DHT22;7827;53.594;9.938;2024-03-02T14:07:50;14.00;99.90
15452;DHT22;7827;53.594;9.938;2024-03-02T14:10:18;13.90;99.90
15452;DHT22;7827;53.594;9.938;2024-03-02T14:12:49;13.90;1.00
15452;DHT22;7827;53.594;9.938;2024-03-02T14:15:17;14.00;99.90
15452;DHT22;7827;53.594;9.938;2024-03-02T14:17:47;13.90;1.00
15452;DHT22;7827;53.594;9.938;2024-03-02T14:20:16;13.90;99.90
15452;DHT22;7827;53.594;9.938;2024-03-02T14:22:50;13.90;99.90
15452;DHT22;7827;53.594;9.938;2024-03-02T14:25:18;13.90;99.90
15452;DHT22;7827;53.594;9.938;2024-03-02T14:27:47;13.90;99.90
15452;DHT22;7827;53.594;9.938;2024-03-02T14:30:35;13.80;99.90
15452;DHT22;7827;53.594;9.938;2024-03-02T14:33:04;13.60;1.00
15452;DHT22;7827;53.594;9.938;2024-03-02T14:35:32;13.60;23.10
15452;DHT22;7827;53.594;9.938;2024-03-02T14:38:02;13.60;1.00
15452;DHT22;7827;53.594;9.938;2024-03-02T14:40:30;13.60;1.00
15452;DHT22;7827;53.594;9.938;2024-03-02T14:42:58;13.50;1.00
15452;DHT22;7827;53.594;9.938;2024-03-02T14:45:27;13.50;1.00
15452;DHT22;7827;53.594;9.938;2024-03-02T14:47:55;13.50;1.00
15452;DHT22;7827;53.594;9.938;2024-03-02T14:50:26;13.50;1.00
15452;DHT22;7827;53.594;9.938;2024-03-02T14:52:54;13.40;1.00
15452;DHT22;7827;53.594;9.938;2024-03-02T14:55:26;13.30;1.00
15452;DHT22;7827;53.594;9.938;2024-03-02T14:57:54;13.30;99.90
15452;DHT22;7827;53.594;9.938;2024-03-02T15:00:22;13.30;99.90
15452;DHT22;7827;53.594;9.938;2024-03-02T15:02:51;13.30;1.00
15452;DHT22;7827;53.594;9.938;2024-03-02T15:05:19;13.30;1.00
15452;DHT22;7827;53.594;9.938;2024-03-02T15:07:47;13.30;1.00
15452;DHT22;7827;53.594;9.938;2024-03-02T15:10:16;13.40;75.20
15452;DHT22;7827;53.594;9.938;2024-03-02T15:12:46;13.40;1.00
15452;DHT22;7827;53.594;9.938;2024-03-02T15:15:16;13.40;1.00
15452;DHT22;7827;53.594;9.938;2024-03-02T15:17:44;13.40;1.00
15452;DHT22;7827;53.594;9.938;2024-03-02T15:20:12;13.30;1.00
15452;DHT22;7827;53.594;9.938;2024-03-02T15:22:41;13.30;1.00
15452;DHT22;7827;53.594;9.938;2024-03-02T15:25:09;13.30;1.00
15452;DHT22;7827;53.594;9.938;2024-03-02T15:27:37;13.30;1.00
15452;DHT22;7827;53.594;9.938;2024-03-02T15:30:08;13.20;97.10
15452;DHT22;7827;53.594;9.938;2024-03-02T15:32:37;13.20;1.00
15452;DHT22;7827;53.594;9.938;2024-03-02T15:35:06;13.10;74.20
15452;DHT22;7827;53.594;9.938;2024-03-02T15:37:34;13.20;48.30
15452;DHT22;7827;53.594;9.938;2024-03-02T15:40:03;13.20;1.00
15452;DHT22;7827;53.594;9.938;2024-03-02T15:42:35;13.20;1.00
15452;DHT22;7827;53.594;9.938;2024-03-02T15:45:04;13.10;1.00
15452;DHT22;7827;53.594;9.938;2024-03-02T15:47:35;13.10;1.00
15452;DHT22;7827;53.594;9.938;2024-03-02T15:50:04;13.10;1.00
15452;DHT22;7827;53.594;9.938;2024-03-02T15:52:33;13.10;1.00
15452;DHT22;7827;53.594;9.938;2024-03-02T15:55:01;13.10;1.00
15452;DHT22;7827;53.594;9.938;2024-03-02T15:57:33;13.00;99.90
15452;DHT22;7827;53.594;9.938;2024-03-02T16:00:01;12.90;1.00
15452;DHT22;7827;53.594;9.938;2024-03-02T16:02:38;12.90;99.90
15452;DHT22;7827;53.594;9.938;2024-03-02T16:05:07;12.90;1.00
15452;DHT22;7827;53.594;9.938;2024-03-02T16:07:36;12.90;1.00
15452;DHT22;7827;53.594;9.938;2024-03-02T16:10:05;12.80;99.90
15452;DHT22;7827;53.594;9.938;2024-03-02T16:12:35;12.80;17.10
15452;DHT22;7827;53.594;9.938;2024-03-02T16:15:04;12.80;1.00
15452;DHT22;7827;53.594;9.938;2024-03-02T16:17:33;12.70;1.00